createdAt,value
2022-12-20T00:01:36.925Z,101803.19
2022-12-20T00:04:06.827Z,101804.69
2022-12-20T00:06:35.697Z,101811.19
2022-12-20T00:09:05.682Z,101806.44
2022-12-20T00:11:34.204Z,101798.16
2022-12-20T00:14:02.555Z,101806.19
2022-12-20T00:16:31.435Z,101809.03
2022-12-20T00:19:03.646Z,101812.22
2022-12-20T00:21:33.790Z,101804.56
2022-12-20T00:24:02.815Z,101798.09
2022-12-20T00:26:32.508Z,101787.50
2022-12-20T00:29:02.392Z,101793.41
2022-12-20T00:31:33.406Z,101789.66
2022-12-20T00:34:03.645Z,101794.81
2022-12-20T00:36:34.168Z,101793.78
2022-12-20T00:39:02.720Z,101801.00
2022-12-20T00:41:32.996Z,101801.59
2022-12-20T00:44:02.028Z,101801.19
2022-12-20T00:46:31.893Z,101811.03
2022-12-20T00:49:01.697Z,101800.38
2022-12-20T00:51:32.940Z,101790.41
2022-12-20T00:54:01.266Z,101801.84
2022-12-20T00:56:29.405Z,101793.00
2022-12-20T00:58:59.583Z,101784.09
2022-12-20T01:01:30.740Z,101791.22
2022-12-20T01:04:01.905Z,101787.00
2022-12-20T01:06:32.330Z,101787.22
2022-12-20T01:09:01.744Z,101780.91
2022-12-20T01:11:31.778Z,101778.03
2022-12-20T01:14:03.551Z,101778.41
2022-12-20T01:16:33.942Z,101773.97
2022-12-20T01:19:02.821Z,101763.94
2022-12-20T01:21:32.555Z,101771.97
2022-12-20T01:24:00.788Z,101768.53
2022-12-20T01:26:30.655Z,101759.75
2022-12-20T01:29:00.679Z,101755.28
2022-12-20T01:31:30.080Z,101753.06
2022-12-20T01:33:58.826Z,101744.66
2022-12-20T01:36:29.541Z,101747.56
2022-12-20T01:39:00.384Z,101743.25
2022-12-20T01:41:30.962Z,101736.94
2022-12-20T01:44:00.910Z,101735.34
2022-12-20T01:46:31.046Z,101740.25
2022-12-20T01:49:03.697Z,101734.97
2022-12-20T01:51:36.001Z,101725.97
2022-12-20T01:54:12.299Z,101724.53
2022-12-20T01:56:42.520Z,101721.13
2022-12-20T01:59:12.199Z,101720.94
2022-12-20T02:01:41.560Z,101723.59
2022-12-20T02:04:10.143Z,101729.47
2022-12-20T02:06:38.344Z,101720.69
2022-12-20T02:09:08.839Z,101716.47
2022-12-20T02:12:06.421Z,101715.41
2022-12-20T02:14:49.840Z,101708.50
2022-12-20T02:17:29.982Z,101713.59
2022-12-20T02:20:35.047Z,101698.91
2022-12-20T02:23:24.640Z,101710.69
2022-12-20T02:26:15.975Z,101712.53
2022-12-20T02:29:09.735Z,101705.59
2022-12-20T02:31:43.601Z,101708.28
2022-12-20T02:34:13.695Z,101714.41
2022-12-20T02:36:41.794Z,101705.03
2022-12-20T02:39:13.261Z,101710.38
2022-12-20T02:41:46.892Z,101709.44
2022-12-20T02:44:35.716Z,101701.34
2022-12-20T02:47:09.515Z,101704.00
2022-12-20T02:49:41.427Z,101698.09
2022-12-20T02:52:11.763Z,101699.53
2022-12-20T02:54:40.285Z,101704.41
2022-12-20T02:57:15.615Z,101696.44
2022-12-20T02:59:50.302Z,101694.59
2022-12-20T03:02:20.601Z,101695.75
2022-12-20T03:04:50.066Z,101699.38
2022-12-20T03:07:18.153Z,101697.56
2022-12-20T03:09:47.862Z,101689.81
2022-12-20T03:12:17.435Z,101684.56
2022-12-20T03:14:45.506Z,101685.59
2022-12-20T03:17:14.201Z,101690.53
2022-12-20T03:19:43.860Z,101685.00
2022-12-20T03:22:12.013Z,101684.56
2022-12-20T03:24:40.200Z,101673.06
2022-12-20T03:27:09.200Z,101689.91
2022-12-20T03:29:37.302Z,101672.22
2022-12-20T03:32:05.590Z,101690.75
2022-12-20T03:34:33.874Z,101678.09
2022-12-20T03:37:03.350Z,101689.19
2022-12-20T03:39:31.832Z,101695.06
2022-12-20T03:42:00.066Z,101694.41
2022-12-20T03:44:28.291Z,101699.16
2022-12-20T03:46:56.560Z,101698.97
2022-12-20T03:49:24.651Z,101707.50
2022-12-20T03:51:52.911Z,101705.72
2022-12-20T03:54:22.476Z,101693.91
2022-12-20T03:56:50.674Z,101692.31
2022-12-20T03:59:18.891Z,101700.69
2022-12-20T04:01:49.952Z,101703.75
2022-12-20T04:04:18.172Z,101695.19
2022-12-20T04:06:46.412Z,101692.56
2022-12-20T04:09:14.518Z,101689.47
2022-12-20T04:11:43.957Z,101691.31
2022-12-20T04:14:12.175Z,101698.03
2022-12-20T04:16:40.260Z,101704.75
2022-12-20T04:19:08.395Z,101702.34
2022-12-20T04:21:37.549Z,101704.41
2022-12-20T04:24:06.704Z,101706.06
2022-12-20T04:26:34.875Z,101693.78
2022-12-20T04:29:05.506Z,101695.63
2022-12-20T04:31:33.777Z,101692.78
2022-12-20T04:34:01.995Z,101696.25
2022-12-20T04:36:30.184Z,101704.84
2022-12-20T04:38:58.302Z,101705.25
2022-12-20T04:41:27.415Z,101701.19
2022-12-20T04:43:57.268Z,101700.97
2022-12-20T04:46:27.764Z,101697.09
2022-12-20T04:48:59.038Z,101697.72
2022-12-20T04:51:28.184Z,101695.06
2022-12-20T04:53:55.771Z,101697.09
2022-12-20T04:56:26.026Z,101691.16
2022-12-20T04:58:55.583Z,101698.06
2022-12-20T05:01:24.165Z,101693.31
2022-12-20T05:03:54.450Z,101686.00
2022-12-20T05:06:22.618Z,101690.66
2022-12-20T05:08:50.699Z,101688.41
2022-12-20T05:11:18.787Z,101685.53
2022-12-20T05:13:46.840Z,101681.47
2022-12-20T05:16:15.017Z,101679.44
2022-12-20T05:18:48.456Z,101679.06
2022-12-20T05:21:44.854Z,101680.09
2022-12-20T05:24:30.541Z,101672.34
2022-12-20T05:26:58.636Z,101677.09
2022-12-20T05:29:26.722Z,101679.31
2022-12-20T05:31:55.117Z,101675.00
2022-12-20T05:34:23.289Z,101678.28
2022-12-20T05:36:53.174Z,101669.31
2022-12-20T05:39:21.260Z,101670.13
2022-12-20T05:41:50.329Z,101674.63
2022-12-20T05:44:18.813Z,101670.97
2022-12-20T05:46:46.913Z,101674.56
2022-12-20T05:49:15.162Z,101670.09
2022-12-20T05:51:43.357Z,101666.84
2022-12-20T05:54:13.082Z,101667.06
2022-12-20T05:56:41.172Z,101673.41
2022-12-20T05:59:09.575Z,101673.44
2022-12-20T06:01:37.884Z,101670.09
2022-12-20T06:04:06.064Z,101671.84
2022-12-20T06:06:34.252Z,101670.94
2022-12-20T06:09:02.403Z,101676.78
2022-12-20T06:11:31.950Z,101672.22
2022-12-20T06:14:00.004Z,101674.44
2022-12-20T06:16:28.607Z,101680.19
2022-12-20T06:18:56.955Z,101684.09
2022-12-20T06:21:25.091Z,101684.09
2022-12-20T06:23:53.180Z,101680.88
2022-12-20T06:26:23.433Z,101675.22
2022-12-20T06:28:54.858Z,101689.34
2022-12-20T06:31:23.126Z,101677.97
2022-12-20T06:33:51.461Z,101681.19
2022-12-20T06:36:19.592Z,101683.38
2022-12-20T06:38:47.793Z,101687.75
2022-12-20T06:41:15.857Z,101684.41
2022-12-20T06:43:43.895Z,101675.16
2022-12-20T06:46:13.527Z,101685.34
2022-12-20T06:48:41.683Z,101675.31
2022-12-20T06:51:11.245Z,101683.47
2022-12-20T06:53:39.642Z,101679.97
2022-12-20T06:56:08.615Z,101680.47
2022-12-20T06:58:36.630Z,101669.81
2022-12-20T07:01:04.839Z,101673.94
2022-12-20T07:03:34.613Z,101674.72
2022-12-20T07:06:02.844Z,101672.44
2022-12-20T07:08:31.119Z,101678.34
2022-12-20T07:11:05.587Z,101669.78
2022-12-20T07:13:33.825Z,101675.84
2022-12-20T07:16:02.368Z,101672.22
2022-12-20T07:18:32.784Z,101675.06
2022-12-20T07:21:03.451Z,101672.03
2022-12-20T07:23:32.118Z,101668.03
2022-12-20T07:26:04.174Z,101675.59
2022-12-20T07:28:32.869Z,101676.44
2022-12-20T07:31:03.896Z,101666.22
2022-12-20T07:33:32.682Z,101664.59
2022-12-20T07:36:07.367Z,101659.03
2022-12-20T07:38:35.669Z,101655.72
2022-12-20T07:41:09.322Z,101665.28
2022-12-20T07:43:37.611Z,101648.91
2022-12-20T07:46:07.323Z,101646.09
2022-12-20T07:48:36.316Z,101647.78
2022-12-20T07:51:10.972Z,101645.00
2022-12-20T07:53:42.418Z,101641.13
2022-12-20T07:56:12.041Z,101641.25
2022-12-20T07:58:42.044Z,101649.84
2022-12-20T08:01:11.469Z,101647.31
2022-12-20T08:03:44.484Z,101639.81
2022-12-20T08:06:15.274Z,101633.78
2022-12-20T08:08:48.638Z,101636.84
2022-12-20T08:11:18.481Z,101632.66
2022-12-20T08:13:48.808Z,101621.47
2022-12-20T08:16:19.577Z,101630.88
2022-12-20T08:18:47.881Z,101629.69
2022-12-20T08:21:17.343Z,101615.81
2022-12-20T08:23:45.416Z,101613.47
2022-12-20T08:26:13.708Z,101612.53
2022-12-20T08:28:42.147Z,101621.94
2022-12-20T08:31:12.847Z,101619.75
2022-12-20T08:33:41.280Z,101620.38
2022-12-20T08:36:12.531Z,101614.91
2022-12-20T08:38:42.387Z,101608.53
2022-12-20T08:41:12.448Z,101606.34
2022-12-20T08:43:41.628Z,101605.53
2022-12-20T08:46:13.290Z,101600.16
2022-12-20T08:48:42.079Z,101592.88
2022-12-20T08:51:12.555Z,101591.22
2022-12-20T08:53:42.207Z,101593.31
2022-12-20T08:56:12.815Z,101581.94
2022-12-20T08:58:42.851Z,101578.09
2022-12-20T09:01:12.901Z,101577.50
2022-12-20T09:03:41.593Z,101580.25
2022-12-20T09:06:12.404Z,101571.03
2022-12-20T09:08:43.249Z,101576.44
2022-12-20T09:11:13.544Z,101568.94
2022-12-20T09:13:44.284Z,101564.34
2022-12-20T09:16:14.586Z,101559.81
2022-12-20T09:18:43.135Z,101563.38
2022-12-20T09:21:12.323Z,101559.47
2022-12-20T09:23:41.977Z,101552.94
2022-12-20T09:26:13.298Z,101546.38
2022-12-20T09:28:41.798Z,101547.13
2022-12-20T09:31:12.918Z,101538.84
2022-12-20T09:33:41.238Z,101532.63
2022-12-20T09:36:13.079Z,101529.13
2022-12-20T09:38:42.563Z,101521.44
2022-12-20T09:41:22.979Z,101512.13
2022-12-20T09:43:51.862Z,101511.31
2022-12-20T09:46:20.452Z,101509.63
2022-12-20T09:48:49.478Z,101515.28
2022-12-20T09:51:28.386Z,101506.38
2022-12-20T09:54:09.173Z,101491.69
2022-12-20T09:56:40.275Z,101490.06
2022-12-20T09:59:14.487Z,101488.38
2022-12-20T10:01:46.382Z,101478.66
2022-12-20T10:04:22.221Z,101486.63
2022-12-20T10:07:04.109Z,101476.00
2022-12-20T10:09:47.535Z,101475.94
2022-12-20T10:12:25.809Z,101472.44
2022-12-20T10:15:11.485Z,101470.06
2022-12-20T10:17:48.189Z,101473.69
2022-12-20T10:20:47.493Z,101458.88
2022-12-20T10:23:29.300Z,101463.00
2022-12-20T10:26:03.238Z,101443.97
2022-12-20T10:28:33.966Z,101446.06
2022-12-20T10:31:04.783Z,101438.88
2022-12-20T10:33:33.916Z,101435.75
2022-12-20T10:36:22.191Z,101423.47
2022-12-20T10:38:52.904Z,101420.22
2022-12-20T10:41:23.980Z,101409.44
2022-12-20T10:43:57.677Z,101404.66
2022-12-20T10:46:37.133Z,101403.13
2022-12-20T10:49:37.842Z,101400.38
2022-12-20T10:52:14.253Z,101395.47
2022-12-20T10:54:43.908Z,101392.34
2022-12-20T10:57:21.223Z,101393.31
2022-12-20T10:59:53.361Z,101385.28
2022-12-20T11:02:39.463Z,101374.00
2022-12-20T11:05:23.341Z,101367.34
2022-12-20T11:10:47.198Z,101359.00
2022-12-20T11:13:25.997Z,101349.97
2022-12-20T11:16:01.764Z,101348.66
2022-12-20T11:18:39.831Z,101340.28
2022-12-20T11:21:27.846Z,101330.16
2022-12-20T11:24:06.105Z,101333.63
2022-12-20T11:26:51.235Z,101331.72
2022-12-20T11:29:38.942Z,101317.19
2022-12-20T11:32:16.757Z,101307.34
2022-12-20T11:34:54.996Z,101299.16
2022-12-20T11:37:25.717Z,101301.88
2022-12-20T11:40:16.985Z,101303.03
2022-12-20T11:43:02.166Z,101296.13
2022-12-20T11:45:40.824Z,101293.16
2022-12-20T11:48:30.613Z,101287.47
2022-12-20T11:51:07.552Z,101289.34
2022-12-20T11:53:42.063Z,101285.84
2022-12-20T11:56:16.056Z,101275.41
2022-12-20T11:58:52.119Z,101270.31
2022-12-20T12:01:27.188Z,101260.66
2022-12-20T12:04:05.499Z,101260.88
2022-12-20T12:06:37.087Z,101249.19
2022-12-20T12:09:16.638Z,101251.56
2022-12-20T12:14:54.232Z,101244.03
2022-12-20T12:17:29.392Z,101237.34
2022-12-20T12:20:10.754Z,101236.28
2022-12-20T12:22:41.842Z,101234.09
2022-12-20T12:25:17.447Z,101235.97
2022-12-20T12:27:45.641Z,101237.00
2022-12-20T12:30:16.063Z,101225.97
2022-12-20T12:32:53.900Z,101240.75
2022-12-20T12:35:45.563Z,101240.47
2022-12-20T12:38:35.909Z,101227.59
2022-12-20T12:41:39.408Z,101231.00
2022-12-20T12:44:36.742Z,101226.34
2022-12-20T12:47:14.346Z,101231.69
2022-12-20T12:49:48.697Z,101235.78
2022-12-20T12:52:35.685Z,101220.81
2022-12-20T12:55:04.678Z,101228.63
2022-12-20T12:57:59.027Z,101224.94
2022-12-20T13:00:51.914Z,101226.31
2022-12-20T13:03:38.998Z,101227.41
2022-12-20T13:06:40.240Z,101222.28
2022-12-20T13:09:22.480Z,101229.00
2022-12-20T13:11:59.217Z,101216.94
2022-12-20T13:14:54.149Z,101224.72
2022-12-20T13:17:51.253Z,101232.66
2022-12-20T13:20:23.483Z,101225.72
2022-12-20T13:23:17.816Z,101228.91
2022-12-20T13:25:49.546Z,101220.59
2022-12-20T13:28:49.992Z,101227.03
2022-12-20T13:31:32.162Z,101224.91
2022-12-20T13:34:03.375Z,101212.78
2022-12-20T13:36:39.404Z,101215.13
2022-12-20T13:39:33.520Z,101210.63
2022-12-20T13:42:32.254Z,101211.13
2022-12-20T13:45:04.182Z,101208.72
2022-12-20T13:47:41.900Z,101211.78
2022-12-20T13:50:35.737Z,101205.63
2022-12-20T13:53:05.411Z,101207.19
2022-12-20T13:55:39.851Z,101216.44
2022-12-20T13:58:15.623Z,101204.91
2022-12-20T14:00:45.214Z,101200.09
2022-12-20T14:03:23.090Z,101207.34
2022-12-20T14:05:56.156Z,101210.25
2022-12-20T14:08:30.559Z,101210.25
2022-12-20T14:11:10.778Z,101207.16
2022-12-20T14:13:41.225Z,101195.81
2022-12-20T14:16:12.241Z,101200.88
2022-12-20T14:18:40.820Z,101191.44
2022-12-20T14:21:10.530Z,101193.53
2022-12-20T14:23:42.016Z,101190.56
2022-12-20T14:26:13.992Z,101192.63
2022-12-20T14:28:45.672Z,101193.38
2022-12-20T14:31:25.696Z,101183.50
2022-12-20T14:34:03.603Z,101183.97
2022-12-20T14:36:32.205Z,101181.78
2022-12-20T14:39:00.549Z,101180.38
2022-12-20T14:41:33.987Z,101180.66
2022-12-20T14:44:15.100Z,101188.16
2022-12-20T14:46:50.395Z,101181.97
2022-12-20T14:49:30.760Z,101183.47
2022-12-20T14:52:08.300Z,101180.22
2022-12-20T14:55:07.301Z,101180.19
2022-12-20T14:57:32.321Z,101173.41
2022-12-20T15:00:24.063Z,101172.28
2022-12-20T15:02:59.544Z,101168.47
2022-12-20T15:05:47.800Z,101161.75
2022-12-20T15:08:18.457Z,101164.19
2022-12-20T15:10:56.175Z,101161.47
2022-12-20T15:13:29.829Z,101160.91
2022-12-20T15:16:02.111Z,101159.53
2022-12-20T15:18:30.394Z,101144.00
2022-12-20T15:21:04.788Z,101145.03
2022-12-20T15:23:34.537Z,101139.44
2022-12-20T15:26:02.938Z,101144.22
2022-12-20T15:28:31.399Z,101141.78
2022-12-20T15:31:01.092Z,101138.25
2022-12-20T15:33:33.800Z,101142.50
2022-12-20T15:36:01.836Z,101143.81
2022-12-20T15:38:54.576Z,101142.34
2022-12-20T15:41:23.101Z,101144.72
2022-12-20T15:43:53.714Z,101144.63
2022-12-20T15:46:23.365Z,101146.31
2022-12-20T15:48:51.829Z,101150.72
2022-12-20T15:51:25.789Z,101144.53
2022-12-20T15:53:53.909Z,101148.31
2022-12-20T15:56:24.812Z,101146.66
2022-12-20T15:58:53.875Z,101138.44
2022-12-20T16:01:27.276Z,101138.31
2022-12-20T16:03:55.516Z,101142.97
2022-12-20T16:06:24.254Z,101142.41
2022-12-20T16:08:52.536Z,101143.19
2022-12-20T16:11:23.394Z,101136.41
2022-12-20T16:13:53.229Z,101134.34
2022-12-20T16:16:25.262Z,101136.47
2022-12-20T16:18:54.050Z,101136.75
2022-12-20T16:21:24.315Z,101131.59
2022-12-20T16:23:52.933Z,101127.09
2022-12-20T16:26:23.142Z,101128.56
2022-12-20T16:28:53.674Z,101126.72
2022-12-20T16:31:26.731Z,101128.75
2022-12-20T16:33:56.127Z,101132.06
2022-12-20T16:36:25.190Z,101124.50
2022-12-20T16:38:54.093Z,101127.84
2022-12-20T16:41:25.139Z,101122.69
2022-12-20T16:43:53.467Z,101125.56
2022-12-20T16:46:26.375Z,101120.25
2022-12-20T16:48:55.077Z,101120.16
2022-12-20T16:51:29.105Z,101125.56
2022-12-20T16:56:47.649Z,101125.66
2022-12-20T16:59:20.172Z,101124.06
2022-12-20T17:01:53.815Z,101125.41
2022-12-20T17:04:22.625Z,101133.03
2022-12-20T17:06:50.983Z,101126.81
2022-12-20T17:09:21.553Z,101129.75
2022-12-20T17:11:50.443Z,101122.03
2022-12-20T17:14:20.141Z,101132.31
2022-12-20T17:16:48.659Z,101122.69
2022-12-20T17:19:18.233Z,101121.16
2022-12-20T17:24:35.219Z,101128.34
2022-12-20T17:27:03.568Z,101127.16
2022-12-20T17:29:32.007Z,101125.81
2022-12-20T17:32:00.460Z,101129.38
2022-12-20T17:34:31.880Z,101120.44
2022-12-20T17:37:00.359Z,101120.66
2022-12-20T17:39:28.483Z,101121.56
2022-12-20T17:41:56.837Z,101117.84
2022-12-20T17:44:26.864Z,101116.31
2022-12-20T17:46:56.635Z,101113.69
2022-12-20T17:49:25.371Z,101107.16
2022-12-20T17:51:57.218Z,101108.78
2022-12-20T17:54:26.734Z,101103.00
2022-12-20T17:56:56.603Z,101100.69
2022-12-20T17:59:25.966Z,101096.19
2022-12-20T18:01:54.236Z,101098.25
2022-12-20T18:04:22.563Z,101086.63
2022-12-20T18:06:52.360Z,101094.22
2022-12-20T18:09:23.151Z,101083.41
2022-12-20T18:11:51.209Z,101084.44
2022-12-20T18:14:19.538Z,101073.53
2022-12-20T18:16:47.790Z,101079.88
2022-12-20T18:19:18.611Z,101085.03
2022-12-20T18:21:46.713Z,101077.75
2022-12-20T18:24:16.232Z,101069.88
2022-12-20T18:26:45.992Z,101077.66
2022-12-20T18:29:14.737Z,101076.03
2022-12-20T18:31:43.144Z,101072.94
2022-12-20T18:34:11.406Z,101066.03
2022-12-20T18:36:39.655Z,101069.72
2022-12-20T18:39:09.460Z,101069.09
2022-12-20T18:41:38.008Z,101071.56
2022-12-20T18:44:08.874Z,101068.69
2022-12-20T18:46:37.605Z,101064.56
2022-12-20T18:49:06.237Z,101070.03
2022-12-20T18:51:37.014Z,101060.09
2022-12-20T18:54:07.189Z,101061.41
2022-12-20T18:56:38.378Z,101062.69
2022-12-20T18:59:13.055Z,101067.16
2022-12-20T19:01:43.510Z,101058.25
2022-12-20T19:04:12.628Z,101055.59
2022-12-20T19:06:41.518Z,101061.00
2022-12-20T19:09:11.613Z,101056.72
2022-12-20T19:11:41.617Z,101048.63
2022-12-20T19:14:13.933Z,101041.28
2022-12-20T19:16:42.406Z,101046.50
2022-12-20T19:19:11.173Z,101041.66
2022-12-20T19:21:41.987Z,101050.91
2022-12-20T19:24:11.934Z,101045.50
2022-12-20T19:26:40.861Z,101038.44
2022-12-20T19:29:11.942Z,101035.31
2022-12-20T19:31:40.295Z,101031.06
2022-12-20T19:34:11.793Z,101040.28
2022-12-20T19:36:42.752Z,101043.84
2022-12-20T19:39:15.268Z,101039.78
2022-12-20T19:41:43.380Z,101036.50
2022-12-20T19:44:12.847Z,101030.03
2022-12-20T19:46:41.524Z,101029.09
2022-12-20T19:49:09.713Z,101019.16
2022-12-20T19:51:38.050Z,101024.09
2022-12-20T19:54:06.413Z,101022.56
2022-12-20T19:56:35.776Z,101019.88
2022-12-20T19:59:04.909Z,101019.78
2022-12-20T20:01:34.520Z,101022.31
2022-12-20T20:04:04.016Z,101017.56
2022-12-20T20:06:32.814Z,101018.91
2022-12-20T20:09:00.988Z,101017.63
2022-12-20T20:11:29.739Z,101011.38
2022-12-20T20:13:58.113Z,101010.97
2022-12-20T20:16:26.546Z,101011.78
2022-12-20T20:18:56.237Z,101012.50
2022-12-20T20:21:25.169Z,101013.16
2022-12-20T20:23:54.465Z,101002.97
2022-12-20T20:26:24.788Z,101005.06
2022-12-20T20:28:53.365Z,101009.56
2022-12-20T20:31:22.815Z,101005.56
2022-12-20T20:33:52.134Z,101001.19
2022-12-20T20:36:23.719Z,100991.25
2022-12-20T20:38:53.114Z,100991.63
2022-12-20T20:41:21.631Z,100991.28
2022-12-20T20:43:50.547Z,100995.44
2022-12-20T20:46:19.547Z,100988.97
2022-12-20T20:48:50.185Z,100986.94
2022-12-20T20:51:18.885Z,100990.28
2022-12-20T20:53:48.659Z,100987.06
2022-12-20T20:56:17.472Z,100986.06
2022-12-20T20:58:46.671Z,100984.09
2022-12-20T21:01:15.368Z,100977.03
2022-12-20T21:03:43.601Z,100969.09
2022-12-20T21:09:02.775Z,100974.47
2022-12-20T21:11:31.281Z,100968.50
2022-12-20T21:13:59.540Z,100970.88
2022-12-20T21:16:28.121Z,100964.88
2022-12-20T21:18:58.798Z,100971.66
2022-12-20T21:21:28.119Z,100968.19
2022-12-20T21:23:56.951Z,100968.06
2022-12-20T21:26:26.993Z,100961.75
2022-12-20T21:28:58.417Z,100962.41
2022-12-20T21:31:26.624Z,100961.91
2022-12-20T21:33:56.757Z,100968.78
2022-12-20T21:36:26.173Z,100950.38
2022-12-20T21:38:56.292Z,100948.03
2022-12-20T21:41:29.022Z,100946.00
2022-12-20T21:43:58.501Z,100949.00
2022-12-20T21:46:27.466Z,100949.09
2022-12-20T21:48:56.307Z,100950.25
2022-12-20T21:51:26.177Z,100943.13
2022-12-20T21:53:55.840Z,100939.13
2022-12-20T21:56:25.323Z,100939.13
2022-12-20T21:58:55.342Z,100931.38
2022-12-20T22:01:25.745Z,100924.34
2022-12-20T22:03:55.785Z,100924.88
2022-12-20T22:06:24.107Z,100913.97
2022-12-20T22:08:52.226Z,100908.56
2022-12-20T22:11:20.498Z,100908.91
2022-12-20T22:13:48.678Z,100905.44
2022-12-20T22:16:19.556Z,100908.63
2022-12-20T22:18:51.010Z,100900.16
2022-12-20T22:21:21.063Z,100896.47
2022-12-20T22:23:50.078Z,100892.84
2022-12-20T22:26:20.252Z,100888.44
2022-12-20T22:28:51.986Z,100885.34
2022-12-20T22:31:22.535Z,100882.44
2022-12-20T22:33:50.724Z,100866.00
2022-12-20T22:36:18.973Z,100874.44
2022-12-20T22:38:48.334Z,100876.09
2022-12-20T22:41:18.925Z,100872.44
2022-12-20T22:43:48.117Z,100871.47
2022-12-20T22:46:18.168Z,100867.75
2022-12-20T22:48:47.900Z,100867.91
2022-12-20T22:51:18.656Z,100863.06
2022-12-20T22:53:49.231Z,100860.47
2022-12-20T22:56:21.649Z,100872.72
2022-12-20T22:58:50.664Z,100874.09
2022-12-20T23:01:21.334Z,100867.38
2022-12-20T23:03:51.173Z,100878.25
2022-12-20T23:06:21.223Z,100873.09
2022-12-20T23:08:49.494Z,100867.53
2022-12-20T23:11:38.143Z,100861.97
2022-12-20T23:14:24.074Z,100862.53
2022-12-20T23:16:52.594Z,100855.28
2022-12-20T23:19:23.697Z,100858.09
2022-12-20T23:22:09.239Z,100854.84
2022-12-20T23:24:37.327Z,100849.31
2022-12-20T23:27:06.862Z,100850.91
2022-12-20T23:29:35.029Z,100844.31
2022-12-20T23:32:03.260Z,100844.78
2022-12-20T23:34:32.881Z,100847.56
2022-12-20T23:37:00.886Z,100845.84
2022-12-20T23:39:29.046Z,100839.84
2022-12-20T23:41:57.222Z,100835.59
2022-12-20T23:44:25.289Z,100835.34
2022-12-20T23:46:53.460Z,100833.16
2022-12-20T23:49:21.489Z,100838.09
2022-12-20T23:51:50.919Z,100833.00
2022-12-20T23:54:21.544Z,100834.06
2022-12-20T23:56:50.919Z,100828.16
2022-12-20T23:59:19.105Z,100820.06
